EKEB

Esbjerg Airport

Esbjerg, Denmark
METAR EKEB 212250Z AUTO 33003KT 0150NDV R08/0550V0650N R26/0600V0800N FG VV002 05/05 Q1020
Observed Flight Rules
Apr-21 @ 22:50 UTC (16 minutes ago) Instrument Flight Rules
Wind Visibility Clouds Conditions
330° at 3 knots 644 meters
  • Vertical visibility at 200' AGL
  • Fog
Temperatures Readings
Current 5°C / 41°F
Dewpoint 5°C / 41°F
Humidity 100%
Altimeter 30.12" Hg
Pressure 1020 hPa
Elevation 29
METAR EKEB 212250Z AUTO 33003KT 0150NDV R08/0550V0650N R26/0600V0800N FG VV002 05/05 Q1020
Observed Flight Rules
Apr-21 @ 22:50 UTC
(16 minutes ago)
LIFR
Wind Visibility
330° at 3 knots 644 meters
Clouds
  • Vertical visibility at 200' AGL
Conditions
  • Fog
Temperature Dewpoint
5°C / 41°F 5°C / 41°F
Humidity Altimeter Pressure
100% 30.12" Hg 1020 hPa